Time;durP1;ratioP1;P1;durP2;ratioP2;P2;SDS_P1;SDS_P2;PMS_P1;PMS_P2;Temp;Humidity;BMP_temperature;BMP_pressure;BME280_temperature;BME280_humidity;BME280_pressure;Samples;Min_cycle;Max_cycle;Signal;HPM_P1;HPM_P2
2023/03/09 00:00:23;;;;;;;5.05;4.32;;;;;;;;;;5050495;28;20029;-62
2023/03/09 00:02:49;;;;;;;4.57;3.90;;;;;;;;;;5050847;28;20032;-61
2023/03/09 00:05:20;;;;;;;5.07;3.97;;;;;;;;;;5031994;28;20433;-61
2023/03/09 00:07:46;;;;;;;5.07;4.10;;;;;;;;;;5030403;28;20395;-60
2023/03/09 00:10:13;;;;;;;5.18;3.97;;;;;;;;;;5030516;28;20121;-61
2023/03/09 00:12:39;;;;;;;5.15;4.15;;;;;;;;;;5030150;28;20021;-61
2023/03/09 00:15:06;;;;;;;5.70;3.80;;;;;;;;;;5030115;28;20033;-60
2023/03/09 00:17:32;;;;;;;4.88;4.18;;;;;;;;;;5029433;28;20390;-60
2023/03/09 00:20:16;;;;;;;3.95;3.55;;;;;;;;;;5030279;28;20034;-61
2023/03/09 00:22:42;;;;;;;4.35;3.72;;;;;;;;;;5030719;28;20536;-61
2023/03/09 00:25:13;;;;;;;5.40;3.92;;;;;;;;;;5030256;28;20112;-61
2023/03/09 00:27:39;;;;;;;5.32;3.90;;;;;;;;;;5030123;28;20053;-61
2023/03/09 00:30:05;;;;;;;4.90;3.58;;;;;;;;;;5030417;28;20036;-61
2023/03/09 00:32:31;;;;;;;5.05;3.63;;;;;;;;;;5030013;28;20509;-61
2023/03/09 00:34:57;;;;;;;5.50;3.80;;;;;;;;;;5030130;28;20033;-61
2023/03/09 00:37:23;;;;;;;4.60;3.78;;;;;;;;;;5029831;28;20025;-61
2023/03/09 00:39:49;;;;;;;5.38;4.35;;;;;;;;;;5029738;28;20060;-60
2023/03/09 00:42:15;;;;;;;6.35;4.15;;;;;;;;;;5029956;28;20026;-61
2023/03/09 00:44:41;;;;;;;5.13;3.85;;;;;;;;;;5030486;28;20037;-61
2023/03/09 00:47:07;;;;;;;4.63;3.70;;;;;;;;;;5030261;28;20025;-61
2023/03/09 00:49:33;;;;;;;6.40;4.07;;;;;;;;;;5029902;28;20483;-61
2023/03/09 00:51:59;;;;;;;4.57;3.60;;;;;;;;;;5029431;28;20048;-61
2023/03/09 00:54:25;;;;;;;3.85;3.10;;;;;;;;;;5033484;28;20075;-61
2023/03/09 00:56:51;;;;;;;5.18;3.70;;;;;;;;;;5033543;28;20526;-62
2023/03/09 00:59:17;;;;;;;5.05;3.35;;;;;;;;;;5033328;28;20033;-61
2023/03/09 01:01:43;;;;;;;5.25;3.60;;;;;;;;;;5032047;28;20034;-63
2023/03/09 01:04:09;;;;;;;5.10;3.22;;;;;;;;;;5033204;28;20047;-62
2023/03/09 01:06:35;;;;;;;5.55;3.65;;;;;;;;;;5033194;28;20489;-62
2023/03/09 01:09:01;;;;;;;4.35;3.25;;;;;;;;;;5033316;28;20109;-62
2023/03/09 01:11:27;;;;;;;5.53;3.72;;;;;;;;;;5032930;28;20068;-61
2023/03/09 01:13:53;;;;;;;5.45;3.40;;;;;;;;;;5033146;28;20029;-61
2023/03/09 01:16:19;;;;;;;5.25;3.60;;;;;;;;;;5032665;28;20035;-63
2023/03/09 01:18:45;;;;;;;7.55;3.75;;;;;;;;;;5033705;28;20025;-63
2023/03/09 01:21:11;;;;;;;4.28;3.25;;;;;;;;;;5033550;28;20034;-62
2023/03/09 01:23:38;;;;;;;5.50;3.42;;;;;;;;;;5033207;28;20105;-61
2023/03/09 01:26:04;;;;;;;5.20;3.60;;;;;;;;;;5033055;28;20064;-62
2023/03/09 01:28:31;;;;;;;6.03;3.33;;;;;;;;;;5032882;28;20088;-61
2023/03/09 01:30:57;;;;;;;5.38;3.65;;;;;;;;;;5033157;28;20064;-61
2023/03/09 01:33:23;;;;;;;5.70;3.28;;;;;;;;;;5032629;28;20021;-62
2023/03/09 01:35:49;;;;;;;7.65;3.80;;;;;;;;;;5041191;28;20025;-59
2023/03/09 01:38:15;;;;;;;5.00;3.00;;;;;;;;;;5052707;28;20017;-62
2023/03/09 01:40:44;;;;;;;5.60;3.60;;;;;;;;;;5037992;28;20436;-61
2023/03/09 01:43:39;;;;;;;6.65;3.17;;;;;;;;;;5033320;28;20397;-61
2023/03/09 01:46:20;;;;;;;6.22;3.10;;;;;;;;;;5032305;28;20030;-61
2023/03/09 01:48:51;;;;;;;5.18;3.20;;;;;;;;;;5032576;28;20475;-60
2023/03/09 01:51:19;;;;;;;7.05;3.90;;;;;;;;;;5034793;28;20477;-62
2023/03/09 01:53:46;;;;;;;4.32;2.72;;;;;;;;;;5052814;28;20102;-61
2023/03/09 01:56:12;;;;;;;5.00;3.10;;;;;;;;;;5053081;28;20025;-62
2023/03/09 01:58:38;;;;;;;5.13;3.47;;;;;;;;;;5050752;28;20025;-62
2023/03/09 02:01:04;;;;;;;6.38;3.53;;;;;;;;;;5032040;28;20021;-61
2023/03/09 02:03:33;;;;;;;6.43;3.22;;;;;;;;;;5031922;28;20121;-62
2023/03/09 02:06:02;;;;;;;6.55;3.30;;;;;;;;;;5031760;28;20029;-62
2023/03/09 02:08:29;;;;;;;6.90;3.30;;;;;;;;;;5031958;28;20042;-61
2023/03/09 02:10:59;;;;;;;4.68;2.58;;;;;;;;;;5032271;28;20034;-60
2023/03/09 02:13:29;;;;;;;6.22;3.40;;;;;;;;;;5031646;28;20036;-63
2023/03/09 02:15:55;;;;;;;5.72;3.08;;;;;;;;;;5032095;28;20021;-62
2023/03/09 02:18:24;;;;;;;5.55;3.00;;;;;;;;;;5031829;28;20052;-63
2023/03/09 02:21:02;;;;;;;6.22;3.25;;;;;;;;;;5031946;28;20029;-62
2023/03/09 02:23:34;;;;;;;7.65;3.17;;;;;;;;;;5031291;28;20103;-63
2023/03/09 02:26:11;;;;;;;7.28;3.33;;;;;;;;;;5031783;28;20108;-62
2023/03/09 02:28:37;;;;;;;5.07;2.92;;;;;;;;;;5031979;28;20498;-60
2023/03/09 02:31:04;;;;;;;6.75;3.13;;;;;;;;;;5032044;28;20022;-60
2023/03/09 02:33:30;;;;;;;6.75;3.33;;;;;;;;;;5031599;28;20092;-61
2023/03/09 02:35:57;;;;;;;6.47;3.00;;;;;;;;;;5031824;28;20029;-61
2023/03/09 02:38:24;;;;;;;6.05;3.08;;;;;;;;;;5031404;28;20107;-61
2023/03/09 02:40:51;;;;;;;6.93;3.30;;;;;;;;;;5031735;28;20600;-61
2023/03/09 02:43:22;;;;;;;8.13;3.40;;;;;;;;;;5031607;28;20048;-62
2023/03/09 02:45:49;;;;;;;6.78;3.60;;;;;;;;;;5031421;28;20033;-60
2023/03/09 02:48:15;;;;;;;9.13;3.75;;;;;;;;;;5031271;28;20043;-62
2023/03/09 02:50:41;;;;;;;8.35;3.58;;;;;;;;;;5031483;28;20033;-62
2023/03/09 02:53:07;;;;;;;6.72;3.80;;;;;;;;;;5031764;28;20037;-62
2023/03/09 02:55:33;;;;;;;6.90;3.58;;;;;;;;;;5031090;28;20026;-60
2023/03/09 02:57:59;;;;;;;5.65;3.08;;;;;;;;;;5031453;28;20021;-62
2023/03/09 03:00:26;;;;;;;5.82;2.90;;;;;;;;;;5030451;28;20029;-61
2023/03/09 03:02:52;;;;;;;8.68;4.15;;;;;;;;;;5031228;28;20025;-63
2023/03/09 03:05:18;;;;;;;5.70;3.13;;;;;;;;;;5031185;28;20409;-62
2023/03/09 03:07:44;;;;;;;6.18;3.28;;;;;;;;;;5031075;28;20075;-60
2023/03/09 03:10:11;;;;;;;8.38;3.25;;;;;;;;;;5031411;28;20041;-62
2023/03/09 03:12:37;;;;;;;6.43;3.88;;;;;;;;;;5030302;28;20033;-63
2023/03/09 03:15:04;;;;;;;4.88;2.78;;;;;;;;;;5030938;28;20065;-63
2023/03/09 03:17:30;;;;;;;6.47;3.13;;;;;;;;;;5030936;28;20030;-63
2023/03/09 03:19:56;;;;;;;9.07;3.30;;;;;;;;;;5030570;28;20036;-62
2023/03/09 03:22:22;;;;;;;5.35;2.72;;;;;;;;;;5030656;28;20033;-64
2023/03/09 03:24:48;;;;;;;6.45;3.20;;;;;;;;;;5030594;28;20524;-63
2023/03/09 03:27:14;;;;;;;5.53;3.03;;;;;;;;;;5030822;28;20030;-62
2023/03/09 03:29:40;;;;;;;7.25;3.28;;;;;;;;;;5031134;28;20099;-62
2023/03/09 03:32:07;;;;;;;5.53;2.63;;;;;;;;;;5031012;28;20025;-63
2023/03/09 03:34:33;;;;;;;6.75;3.47;;;;;;;;;;5030992;28;20104;-63
2023/03/09 03:36:59;;;;;;;7.18;3.25;;;;;;;;;;5030467;28;20108;-63
2023/03/09 03:39:25;;;;;;;7.13;2.72;;;;;;;;;;5048130;28;20029;-63
2023/03/09 03:41:51;;;;;;;6.63;3.45;;;;;;;;;;5046548;28;20018;-62
2023/03/09 03:44:17;;;;;;;5.55;2.67;;;;;;;;;;5030639;28;20030;-63
2023/03/09 03:46:43;;;;;;;6.60;2.95;;;;;;;;;;5031293;28;20033;-63
2023/03/09 03:49:09;;;;;;;8.43;3.13;;;;;;;;;;5031313;28;20556;-62
2023/03/09 03:51:35;;;;;;;7.10;3.13;;;;;;;;;;5030809;28;20025;-64
2023/03/09 03:54:01;;;;;;;5.20;2.83;;;;;;;;;;5035374;28;20021;-62
2023/03/09 03:56:27;;;;;;;6.78;2.80;;;;;;;;;;5050535;28;20053;-62
2023/03/09 03:58:53;;;;;;;6.60;2.42;;;;;;;;;;5050660;28;20086;-61
2023/03/09 04:01:19;;;;;;;6.47;3.13;;;;;;;;;;5036854;28;20025;-62
2023/03/09 04:03:45;;;;;;;6.93;3.03;;;;;;;;;;5030332;28;20079;-62
2023/03/09 04:06:11;;;;;;;5.07;2.58;;;;;;;;;;5030597;28;20029;-62
2023/03/09 04:08:37;;;;;;;7.05;3.17;;;;;;;;;;5030285;28;20101;-61
2023/03/09 04:11:07;;;;;;;5.65;2.60;;;;;;;;;;5030623;28;20037;-62
2023/03/09 04:13:33;;;;;;;5.72;2.25;;;;;;;;;;5029915;28;20497;-63
2023/03/09 04:15:59;;;;;;;8.30;3.40;;;;;;;;;;5030298;28;20068;-61
2023/03/09 04:18:25;;;;;;;8.05;3.42;;;;;;;;;;5030486;28;20026;-62
2023/03/09 04:20:52;;;;;;;6.05;2.72;;;;;;;;;;5030228;28;20049;-62
2023/03/09 04:23:19;;;;;;;7.25;2.80;;;;;;;;;;5030416;28;20099;-61
2023/03/09 04:25:53;;;;;;;6.18;2.67;;;;;;;;;;5030508;28;20029;-62
2023/03/09 04:28:19;;;;;;;5.95;2.50;;;;;;;;;;5032670;28;20042;-63
2023/03/09 04:30:45;;;;;;;5.97;2.53;;;;;;;;;;5034173;28;20470;-62
2023/03/09 04:33:11;;;;;;;8.02;2.55;;;;;;;;;;5034400;28;20021;-62
2023/03/09 04:35:37;;;;;;;7.35;2.72;;;;;;;;;;5033565;28;20105;-62
2023/03/09 04:38:03;;;;;;;6.13;2.80;;;;;;;;;;5034113;28;20623;-62
2023/03/09 04:40:30;;;;;;;6.40;2.90;;;;;;;;;;5033843;28;20043;-62
2023/03/09 04:42:56;;;;;;;8.65;2.75;;;;;;;;;;5034168;28;20037;-61
2023/03/09 04:45:22;;;;;;;7.95;2.53;;;;;;;;;;5033847;28;20021;-62
2023/03/09 04:47:48;;;;;;;8.15;2.70;;;;;;;;;;5033924;28;20444;-62
2023/03/09 04:50:14;;;;;;;6.40;2.55;;;;;;;;;;5034277;28;20037;-61
2023/03/09 04:52:40;;;;;;;7.15;2.50;;;;;;;;;;5033999;28;20033;-62
2023/03/09 04:55:06;;;;;;;4.82;2.42;;;;;;;;;;5034061;28;20179;-62
2023/03/09 04:57:32;;;;;;;6.75;3.05;;;;;;;;;;5033433;28;20541;-61
2023/03/09 04:59:58;;;;;;;6.70;2.65;;;;;;;;;;5033352;28;20152;-62
2023/03/09 05:02:25;;;;;;;7.65;2.95;;;;;;;;;;5052544;28;20052;-61
2023/03/09 05:04:51;;;;;;;5.47;2.20;;;;;;;;;;5047930;28;20028;-61
2023/03/09 05:07:17;;;;;;;4.75;2.22;;;;;;;;;;5033469;28;20025;-62
2023/03/09 05:09:43;;;;;;;6.35;2.38;;;;;;;;;;5033508;28;20045;-61
2023/03/09 05:12:09;;;;;;;5.15;2.47;;;;;;;;;;5033835;28;20028;-61
2023/03/09 05:14:35;;;;;;;5.90;2.35;;;;;;;;;;5032676;28;20030;-61
2023/03/09 05:17:01;;;;;;;5.95;2.38;;;;;;;;;;5033055;28;20029;-61
2023/03/09 05:19:27;;;;;;;5.25;2.25;;;;;;;;;;5033603;28;20033;-61
2023/03/09 05:21:54;;;;;;;7.10;2.70;;;;;;;;;;5033235;28;20034;-61
2023/03/09 05:24:20;;;;;;;5.57;2.28;;;;;;;;;;5033122;28;20040;-61
2023/03/09 05:26:46;;;;;;;5.70;2.53;;;;;;;;;;5032935;28;20026;-60
2023/03/09 05:29:12;;;;;;;6.10;2.63;;;;;;;;;;5033321;28;20100;-61
2023/03/09 05:31:38;;;;;;;6.15;2.50;;;;;;;;;;5032473;28;20018;-61
2023/03/09 05:34:04;;;;;;;5.53;2.50;;;;;;;;;;5043533;28;20037;-61
2023/03/09 05:36:31;;;;;;;4.63;2.15;;;;;;;;;;5053133;28;20071;-61
2023/03/09 05:38:57;;;;;;;6.38;2.42;;;;;;;;;;5038058;28;20029;-61
2023/03/09 05:41:23;;;;;;;4.82;2.33;;;;;;;;;;5032593;28;20038;-62
2023/03/09 05:43:49;;;;;;;5.88;2.65;;;;;;;;;;5033227;28;20032;-62
2023/03/09 05:46:16;;;;;;;4.82;2.40;;;;;;;;;;5032163;28;20029;-61
2023/03/09 05:48:43;;;;;;;6.07;2.70;;;;;;;;;;5033430;28;20512;-61
2023/03/09 05:51:10;;;;;;;7.22;2.83;;;;;;;;;;5032876;28;20032;-62
2023/03/09 05:53:36;;;;;;;6.85;2.97;;;;;;;;;;5032576;28;20501;-61
2023/03/09 05:56:03;;;;;;;5.05;2.70;;;;;;;;;;5032668;28;20032;-61
2023/03/09 05:58:29;;;;;;;5.88;2.60;;;;;;;;;;5032400;28;20501;-62
2023/03/09 06:00:56;;;;;;;5.85;2.60;;;;;;;;;;5032056;28;21385;-63
2023/03/09 06:03:22;;;;;;;4.82;2.63;;;;;;;;;;5032336;28;20474;-62
2023/03/09 06:05:48;;;;;;;5.68;2.85;;;;;;;;;;5032602;28;20047;-62
2023/03/09 06:08:14;;;;;;;6.22;3.05;;;;;;;;;;5031969;28;20417;-61
2023/03/09 06:10:40;;;;;;;3.70;2.42;;;;;;;;;;5031876;28;20037;-63
2023/03/09 06:13:07;;;;;;;4.65;2.40;;;;;;;;;;5032461;28;20028;-63
2023/03/09 06:15:33;;;;;;;4.55;2.25;;;;;;;;;;5031244;28;20026;-61
2023/03/09 06:17:59;;;;;;;4.63;2.55;;;;;;;;;;5032232;28;20036;-63
2023/03/09 06:20:25;;;;;;;6.70;3.08;;;;;;;;;;5032160;28;20379;-63
2023/03/09 06:22:51;;;;;;;5.30;2.70;;;;;;;;;;5032470;28;20037;-63
2023/03/09 06:25:17;;;;;;;6.03;3.08;;;;;;;;;;5032067;28;20109;-63
2023/03/09 06:27:43;;;;;;;5.28;2.78;;;;;;;;;;5031076;28;20398;-64
2023/03/09 06:30:09;;;;;;;6.00;2.85;;;;;;;;;;5032105;28;20041;-63
2023/03/09 06:32:35;;;;;;;4.60;2.70;;;;;;;;;;5039000;28;20033;-63
2023/03/09 06:35:02;;;;;;;5.88;2.95;;;;;;;;;;5052143;28;20631;-64
2023/03/09 06:37:28;;;;;;;5.47;2.83;;;;;;;;;;5038102;28;20033;-62
2023/03/09 06:39:54;;;;;;;5.85;3.17;;;;;;;;;;5031780;28;20409;-63
2023/03/09 06:42:20;;;;;;;5.85;3.10;;;;;;;;;;5031382;28;20025;-62
2023/03/09 06:44:46;;;;;;;5.57;2.60;;;;;;;;;;5032154;28;20364;-63
2023/03/09 06:47:12;;;;;;;5.38;2.95;;;;;;;;;;5032409;28;20021;-63
2023/03/09 06:49:38;;;;;;;5.22;2.90;;;;;;;;;;5031389;28;20048;-62
2023/03/09 06:52:05;;;;;;;6.90;3.05;;;;;;;;;;5031303;28;20068;-66
2023/03/09 06:54:31;;;;;;;4.47;2.80;;;;;;;;;;5041400;28;20075;-65
2023/03/09 06:56:57;;;;;;;8.27;3.15;;;;;;;;;;5038104;28;20160;-64
2023/03/09 06:59:23;;;;;;;5.90;3.15;;;;;;;;;;5047842;28;20541;-63
2023/03/09 07:01:49;;;;;;;7.95;3.05;;;;;;;;;;5049727;28;20017;-65
2023/03/09 07:04:16;;;;;;;6.55;3.15;;;;;;;;;;5029082;28;20040;-65
2023/03/09 07:06:42;;;;;;;6.85;3.20;;;;;;;;;;5031862;28;20029;-64
2023/03/09 07:09:08;;;;;;;5.55;3.08;;;;;;;;;;5036076;28;20102;-64
2023/03/09 07:11:34;;;;;;;6.35;3.47;;;;;;;;;;5051249;28;20032;-64
2023/03/09 07:14:00;;;;;;;6.13;3.88;;;;;;;;;;5042240;28;20152;-64
2023/03/09 07:16:27;;;;;;;6.35;3.28;;;;;;;;;;5031386;28;20028;-61
2023/03/09 07:18:53;;;;;;;6.50;3.47;;;;;;;;;;5031593;28;20038;-62
2023/03/09 07:21:19;;;;;;;5.72;3.08;;;;;;;;;;5030193;28;20031;-60
2023/03/09 07:23:45;;;;;;;9.77;3.17;;;;;;;;;;5030255;28;20038;-63
2023/03/09 07:26:11;;;;;;;9.00;3.47;;;;;;;;;;5030789;28;20033;-62
2023/03/09 07:28:37;;;;;;;5.93;3.85;;;;;;;;;;5029959;28;20044;-62
2023/03/09 07:31:10;;;;;;;7.20;3.95;;;;;;;;;;5029825;28;20013;-62
2023/03/09 07:33:36;;;;;;;5.75;3.47;;;;;;;;;;5027045;28;20029;-63
2023/03/09 07:36:03;;;;;;;7.32;3.78;;;;;;;;;;5029438;28;20025;-63
2023/03/09 07:38:29;;;;;;;5.72;3.42;;;;;;;;;;5029185;28;20022;-63
2023/03/09 07:40:57;;;;;;;8.32;4.07;;;;;;;;;;5029640;28;20420;-60
2023/03/09 07:43:23;;;;;;;7.38;3.90;;;;;;;;;;5032929;28;20029;-63
2023/03/09 07:45:49;;;;;;;6.65;4.40;;;;;;;;;;5029579;28;20030;-63
2023/03/09 07:48:15;;;;;;;8.15;4.18;;;;;;;;;;5028348;28;20039;-62
2023/03/09 07:50:42;;;;;;;7.70;4.93;;;;;;;;;;5030776;28;20112;-61
2023/03/09 07:53:08;;;;;;;10.68;4.68;;;;;;;;;;5031143;28;20457;-63
2023/03/09 07:55:34;;;;;;;7.75;5.18;;;;;;;;;;5039719;28;20566;-62
2023/03/09 07:58:01;;;;;;;8.98;5.40;;;;;;;;;;5028262;28;20037;-63
2023/03/09 08:00:28;;;;;;;8.10;5.20;;;;;;;;;;5011290;28;20030;-63
2023/03/09 08:02:54;;;;;;;8.77;5.60;;;;;;;;;;5029627;28;20037;-61
2023/03/09 08:05:20;;;;;;;9.18;5.18;;;;;;;;;;5039373;28;20021;-62
2023/03/09 08:07:47;;;;;;;11.32;5.30;;;;;;;;;;5042463;28;20083;-63
2023/03/09 08:10:14;;;;;;;9.30;5.40;;;;;;;;;;5041676;28;20049;-62
2023/03/09 08:12:40;;;;;;;9.23;5.75;;;;;;;;;;5043663;28;20021;-63
2023/03/09 08:15:06;;;;;;;9.98;5.68;;;;;;;;;;5054901;28;20086;-63
2023/03/09 08:17:34;;;;;;;9.10;5.10;;;;;;;;;;5038988;28;20018;-63
2023/03/09 08:20:00;;;;;;;8.23;5.13;;;;;;;;;;5034730;28;20022;-63
2023/03/09 08:22:26;;;;;;;7.72;5.15;;;;;;;;;;5034375;28;20513;-63
2023/03/09 08:24:52;;;;;;;8.10;5.13;;;;;;;;;;5035416;28;20079;-62
2023/03/09 08:27:18;;;;;;;9.60;5.63;;;;;;;;;;5034431;28;20029;-63
2023/03/09 08:29:44;;;;;;;9.32;5.47;;;;;;;;;;5034872;28;20041;-63
2023/03/09 08:32:10;;;;;;;8.77;5.03;;;;;;;;;;5035047;28;20513;-62
2023/03/09 08:34:36;;;;;;;10.43;5.70;;;;;;;;;;5034345;28;20092;-63
2023/03/09 08:37:03;;;;;;;10.77;5.03;;;;;;;;;;5034568;28;20048;-63
2023/03/09 08:39:29;;;;;;;9.73;5.68;;;;;;;;;;5034308;28;20520;-62
2023/03/09 08:41:55;;;;;;;9.93;5.10;;;;;;;;;;5034065;28;20018;-62
2023/03/09 08:44:21;;;;;;;10.02;4.55;;;;;;;;;;5034234;28;20033;-62
2023/03/09 08:46:47;;;;;;;8.23;5.20;;;;;;;;;;5034394;28;20029;-63
2023/03/09 08:49:13;;;;;;;6.85;4.32;;;;;;;;;;5034492;28;20465;-63
2023/03/09 08:51:39;;;;;;;11.73;5.40;;;;;;;;;;5034192;28;20109;-62
2023/03/09 08:54:05;;;;;;;9.40;5.43;;;;;;;;;;5033766;28;20029;-62
2023/03/09 08:56:31;;;;;;;9.75;4.88;;;;;;;;;;5034143;28;20031;-62
2023/03/09 08:58:57;;;;;;;9.50;5.72;;;;;;;;;;5034135;28;20487;-62
2023/03/09 09:01:23;;;;;;;9.15;5.43;;;;;;;;;;5033145;28;20033;-63
2023/03/09 09:03:49;;;;;;;8.80;4.68;;;;;;;;;;5034119;28;20390;-63
2023/03/09 09:06:16;;;;;;;9.00;4.90;;;;;;;;;;5033785;28;20022;-63
2023/03/09 09:08:42;;;;;;;6.28;3.97;;;;;;;;;;5034455;28;20485;-63
2023/03/09 09:11:10;;;;;;;10.88;5.05;;;;;;;;;;5034053;28;20474;-63
2023/03/09 09:13:37;;;;;;;8.45;4.32;;;;;;;;;;5032799;28;20025;-63
2023/03/09 09:16:05;;;;;;;9.50;4.90;;;;;;;;;;5042740;28;20040;-63
2023/03/09 09:18:31;;;;;;;9.93;4.68;;;;;;;;;;5053300;28;20041;-63
2023/03/09 09:20:58;;;;;;;9.20;5.00;;;;;;;;;;5037240;28;20026;-63
2023/03/09 09:23:24;;;;;;;8.52;4.43;;;;;;;;;;5033637;28;20029;-62
2023/03/09 09:25:56;;;;;;;7.15;4.38;;;;;;;;;;5033738;28;20037;-62
2023/03/09 09:28:22;;;;;;;10.18;5.43;;;;;;;;;;5033418;28;20073;-63
2023/03/09 09:30:53;;;;;;;9.07;4.75;;;;;;;;;;5033401;28;20116;-63
2023/03/09 09:33:19;;;;;;;7.97;4.57;;;;;;;;;;5050557;28;20017;-63
2023/03/09 09:36:05;;;;;;;5.68;3.63;;;;;;;;;;5053481;28;20517;-63
2023/03/09 09:38:35;;;;;;;9.32;3.90;;;;;;;;;;5035640;28;20044;-63
2023/03/09 09:41:23;;;;;;;6.60;3.83;;;;;;;;;;5053372;28;20017;-62
2023/03/09 09:43:50;;;;;;;7.30;4.60;;;;;;;;;;5053312;28;20040;-62
2023/03/09 09:46:17;;;;;;;8.70;4.38;;;;;;;;;;5040237;28;20021;-63
2023/03/09 09:48:44;;;;;;;8.75;3.72;;;;;;;;;;5048803;28;20131;-62
2023/03/09 09:51:15;;;;;;;7.88;4.53;;;;;;;;;;5051062;28;20055;-62
2023/03/09 09:54:03;;;;;;;6.57;4.00;;;;;;;;;;5032539;28;20029;-62
2023/03/09 09:56:37;;;;;;;7.88;4.00;;;;;;;;;;5012999;28;20156;-61
2023/03/09 09:59:06;;;;;;;6.78;3.97;;;;;;;;;;5013381;28;20030;-61
2023/03/09 10:01:52;;;;;;;5.25;3.22;;;;;;;;;;5021336;28;20022;-61
2023/03/09 10:04:22;;;;;;;9.23;4.45;;;;;;;;;;5032288;28;20498;-63
2023/03/09 10:06:49;;;;;;;7.50;3.70;;;;;;;;;;5031975;28;20032;-63
2023/03/09 10:09:21;;;;;;;7.22;3.50;;;;;;;;;;5032367;28;20429;-62
2023/03/09 10:11:49;;;;;;;4.88;3.20;;;;;;;;;;5032494;28;20375;-61
2023/03/09 10:14:23;;;;;;;6.05;3.55;;;;;;;;;;5032650;28;20021;-62
2023/03/09 10:16:52;;;;;;;6.13;3.58;;;;;;;;;;5032745;28;20074;-63
2023/03/09 10:19:28;;;;;;;5.45;3.22;;;;;;;;;;5032455;28;20044;-62
2023/03/09 10:21:58;;;;;;;5.53;3.50;;;;;;;;;;5032758;28;20029;-62
2023/03/09 10:24:26;;;;;;;6.80;3.63;;;;;;;;;;5031628;28;20043;-61
2023/03/09 10:27:02;;;;;;;5.78;3.30;;;;;;;;;;5031902;28;20030;-63
2023/03/09 10:29:48;;;;;;;5.57;2.80;;;;;;;;;;5032178;28;20121;-62
2023/03/09 10:32:18;;;;;;;5.43;3.40;;;;;;;;;;5031355;28;20490;-62
2023/03/09 10:34:55;;;;;;;5.72;3.28;;;;;;;;;;5032011;28;20448;-62
2023/03/09 10:37:23;;;;;;;5.97;3.08;;;;;;;;;;5032116;28;20021;-61
2023/03/09 10:39:49;;;;;;;5.25;2.40;;;;;;;;;;5032336;28;20470;-61
2023/03/09 10:42:23;;;;;;;6.43;3.33;;;;;;;;;;5031995;28;20026;-63
2023/03/09 10:45:10;;;;;;;6.05;3.30;;;;;;;;;;5032367;28;20022;-63
2023/03/09 10:47:51;;;;;;;4.70;2.67;;;;;;;;;;5030536;28;20518;-62
2023/03/09 10:50:17;;;;;;;6.97;2.90;;;;;;;;;;5030340;28;20041;-61
2023/03/09 10:52:43;;;;;;;5.65;2.75;;;;;;;;;;5031765;28;20030;-63
2023/03/09 10:55:29;;;;;;;5.70;3.05;;;;;;;;;;5031440;28;20033;-63
2023/03/09 10:57:55;;;;;;;5.68;2.85;;;;;;;;;;5030370;28;20163;-63
2023/03/09 11:00:22;;;;;;;6.13;2.38;;;;;;;;;;5031188;28;20071;-62
2023/03/09 11:02:52;;;;;;;5.53;2.60;;;;;;;;;;5031817;28;20075;-63
2023/03/09 11:05:18;;;;;;;6.35;3.00;;;;;;;;;;5031662;28;20028;-62
2023/03/09 11:07:49;;;;;;;7.10;2.95;;;;;;;;;;5031927;28;20116;-61
2023/03/09 11:10:24;;;;;;;6.35;2.58;;;;;;;;;;5030004;28;20045;-60
2023/03/09 11:12:50;;;;;;;5.25;3.05;;;;;;;;;;5044075;28;20096;-63
2023/03/09 11:15:16;;;;;;;6.82;2.40;;;;;;;;;;5051338;28;20029;-62
2023/03/09 11:17:44;;;;;;;5.40;2.67;;;;;;;;;;5037171;28;20408;-61
2023/03/09 11:20:13;;;;;;;4.65;2.25;;;;;;;;;;5031630;28;20029;-61
2023/03/09 11:22:42;;;;;;;5.78;2.67;;;;;;;;;;5031114;28;20421;-63
2023/03/09 11:25:14;;;;;;;6.25;2.42;;;;;;;;;;5031449;28;20021;-63
2023/03/09 11:27:43;;;;;;;4.68;2.20;;;;;;;;;;5031883;28;20524;-63
2023/03/09 11:30:16;;;;;;;7.72;2.85;;;;;;;;;;5031514;28;20037;-63
2023/03/09 11:32:42;;;;;;;4.75;2.50;;;;;;;;;;5030620;28;20136;-62
2023/03/09 11:35:15;;;;;;;5.07;2.40;;;;;;;;;;5033743;28;20113;-63
2023/03/09 11:37:54;;;;;;;6.93;2.40;;;;;;;;;;5051273;28;20029;-62
2023/03/09 11:40:22;;;;;;;6.10;2.63;;;;;;;;;;5050906;28;20090;-62
2023/03/09 11:42:59;;;;;;;6.95;2.38;;;;;;;;;;5034116;28;20029;-64
2023/03/09 11:45:30;;;;;;;6.97;2.67;;;;;;;;;;5030791;28;20030;-63
2023/03/09 11:47:56;;;;;;;7.30;2.70;;;;;;;;;;5031107;28;20490;-62
2023/03/09 11:50:24;;;;;;;6.68;2.38;;;;;;;;;;5029599;28;20108;-63
2023/03/09 11:52:52;;;;;;;6.32;2.75;;;;;;;;;;5030042;28;20033;-63
2023/03/09 11:55:22;;;;;;;10.23;2.60;;;;;;;;;;5029820;28;20482;-63
2023/03/09 11:57:50;;;;;;;6.72;2.42;;;;;;;;;;5030751;28;20523;-62
2023/03/09 12:00:19;;;;;;;5.28;2.10;;;;;;;;;;5030625;28;20021;-62
2023/03/09 12:03:00;;;;;;;9.32;2.50;;;;;;;;;;5030987;28;20516;-62
2023/03/09 12:05:29;;;;;;;5.85;1.95;;;;;;;;;;5030642;28;20071;-62
2023/03/09 12:07:55;;;;;;;6.72;2.65;;;;;;;;;;5030895;28;20029;-63
2023/03/09 12:10:25;;;;;;;5.70;2.50;;;;;;;;;;5029154;28;20037;-63
2023/03/09 12:12:57;;;;;;;9.32;3.13;;;;;;;;;;5030827;28;20029;-61
2023/03/09 12:15:42;;;;;;;9.50;2.80;;;;;;;;;;5029747;28;20049;-62
2023/03/09 12:18:17;;;;;;;8.80;2.67;;;;;;;;;;5030296;28;20124;-61
2023/03/09 12:20:49;;;;;;;10.63;3.50;;;;;;;;;;5030801;28;20462;-63
2023/03/09 12:23:34;;;;;;;13.18;2.35;;;;;;;;;;5029744;28;20102;-63
2023/03/09 12:26:00;;;;;;;10.20;3.08;;;;;;;;;;5032089;28;20502;-63
2023/03/09 12:28:26;;;;;;;6.97;2.92;;;;;;;;;;5030430;28;20482;-61
2023/03/09 12:30:54;;;;;;;10.05;3.17;;;;;;;;;;5042389;28;20017;-61
2023/03/09 12:33:38;;;;;;;12.25;3.17;;;;;;;;;;5029674;28;20049;-63
2023/03/09 12:36:20;;;;;;;14.32;3.97;;;;;;;;;;5030738;28;20029;-61
2023/03/09 12:38:46;;;;;;;17.48;4.20;;;;;;;;;;5029085;28;20029;-61
2023/03/09 12:41:38;;;;;;;15.82;4.10;;;;;;;;;;5029816;28;20033;-62
2023/03/09 12:44:04;;;;;;;12.18;3.90;;;;;;;;;;5026729;28;20052;-62
2023/03/09 12:46:51;;;;;;;15.55;4.05;;;;;;;;;;5028711;28;20029;-62
2023/03/09 12:49:18;;;;;;;13.77;4.40;;;;;;;;;;5030191;28;20062;-61
2023/03/09 12:51:45;;;;;;;11.60;4.13;;;;;;;;;;5032884;28;20025;-61
2023/03/09 12:54:20;;;;;;;10.55;3.88;;;;;;;;;;5032979;28;20025;-63
2023/03/09 12:56:46;;;;;;;11.83;4.13;;;;;;;;;;5032696;28;20516;-62
2023/03/09 12:59:15;;;;;;;11.60;3.45;;;;;;;;;;5033125;28;20389;-61
2023/03/09 13:01:42;;;;;;;13.02;3.30;;;;;;;;;;5034407;28;20032;-63
2023/03/09 13:04:19;;;;;;;10.27;4.07;;;;;;;;;;5034093;28;20030;-63
2023/03/09 13:06:51;;;;;;;15.25;3.53;;;;;;;;;;5033757;28;20030;-60
2023/03/09 13:09:31;;;;;;;8.93;3.13;;;;;;;;;;5033650;28;20180;-61
2023/03/09 13:11:57;;;;;;;16.52;4.25;;;;;;;;;;5034088;28;20021;-62
2023/03/09 13:14:26;;;;;;;11.90;3.90;;;;;;;;;;5033687;28;20044;-62
2023/03/09 13:16:59;;;;;;;9.55;3.38;;;;;;;;;;5033936;28;20100;-63
2023/03/09 13:19:25;;;;;;;12.15;4.05;;;;;;;;;;5031833;28;20025;-62
2023/03/09 13:21:57;;;;;;;13.38;4.07;;;;;;;;;;5031903;28;20017;-62
2023/03/09 13:24:35;;;;;;;13.05;3.55;;;;;;;;;;5031990;28;20120;-61
2023/03/09 13:27:03;;;;;;;14.63;3.55;;;;;;;;;;5033082;28;20492;-61
2023/03/09 13:29:30;;;;;;;10.35;3.33;;;;;;;;;;5033284;28;20033;-61
2023/03/09 13:31:56;;;;;;;11.38;4.13;;;;;;;;;;5033295;28;20022;-63
2023/03/09 13:34:24;;;;;;;12.18;3.55;;;;;;;;;;5033222;28;20029;-61
2023/03/09 13:36:51;;;;;;;12.15;3.50;;;;;;;;;;5033058;28;20045;-61
2023/03/09 13:39:19;;;;;;;10.65;3.13;;;;;;;;;;5031756;28;20034;-60
2023/03/09 13:41:45;;;;;;;10.20;2.95;;;;;;;;;;5031795;28;20018;-60
2023/03/09 13:44:16;;;;;;;12.23;3.33;;;;;;;;;;5031751;28;20021;-62
2023/03/09 13:46:45;;;;;;;12.43;3.60;;;;;;;;;;5031791;28;20033;-61
2023/03/09 13:49:18;;;;;;;11.98;3.35;;;;;;;;;;5029578;28;20033;-62
2023/03/09 13:51:48;;;;;;;12.10;3.15;;;;;;;;;;5031000;28;20548;-60
2023/03/09 13:54:23;;;;;;;8.68;2.90;;;;;;;;;;5031176;28;20065;-60
2023/03/09 13:57:02;;;;;;;11.07;3.60;;;;;;;;;;5031345;28;20021;-61
2023/03/09 13:59:31;;;;;;;14.50;3.72;;;;;;;;;;5031579;28;20033;-61
2023/03/09 14:02:01;;;;;;;12.10;3.90;;;;;;;;;;5028574;28;20021;-60
2023/03/09 14:04:27;;;;;;;10.60;3.38;;;;;;;;;;5031044;28;20030;-61
2023/03/09 14:06:55;;;;;;;12.68;3.72;;;;;;;;;;5032669;28;20506;-60
2023/03/09 14:09:47;;;;;;;11.25;3.70;;;;;;;;;;5032386;28;20040;-62
2023/03/09 14:12:25;;;;;;;9.80;3.22;;;;;;;;;;5032197;28;20048;-60
2023/03/09 14:14:51;;;;;;;9.77;3.35;;;;;;;;;;5031826;28;20072;-60
2023/03/09 14:17:18;;;;;;;11.20;3.63;;;;;;;;;;5032082;28;20029;-61
2023/03/09 14:19:44;;;;;;;9.20;2.88;;;;;;;;;;5032501;28;20367;-60
2023/03/09 14:22:18;;;;;;;10.10;3.05;;;;;;;;;;5032615;28;20029;-62
2023/03/09 14:24:44;;;;;;;11.13;3.42;;;;;;;;;;5032031;28;20041;-60
2023/03/09 14:27:22;;;;;;;10.07;3.17;;;;;;;;;;5032244;28;20036;-60
2023/03/09 14:29:49;;;;;;;11.45;3.35;;;;;;;;;;5031669;28;20057;-60
2023/03/09 14:32:22;;;;;;;10.77;3.38;;;;;;;;;;5032252;28;20029;-60
2023/03/09 14:34:49;;;;;;;13.68;3.88;;;;;;;;;;5031639;28;20079;-61
2023/03/09 14:37:29;;;;;;;10.93;3.25;;;;;;;;;;5030856;28;20512;-63
2023/03/09 14:39:56;;;;;;;12.75;3.35;;;;;;;;;;5032340;28;20167;-62
2023/03/09 14:42:26;;;;;;;12.40;3.15;;;;;;;;;;5031500;28;20030;-61
2023/03/09 14:45:10;;;;;;;11.00;2.90;;;;;;;;;;5030652;28;20389;-60
2023/03/09 14:47:37;;;;;;;7.85;3.03;;;;;;;;;;5031883;28;20044;-62